Time;durP1;ratioP1;P1;durP2;ratioP2;P2;SDS_P1;SDS_P2;PMS_P1;PMS_P2;Temp;Humidity;BMP_temperature;BMP_pressure;BME280_temperature;BME280_humidity;BME280_pressure;Samples;Min_cycle;Max_cycle;Signal;HPM_P1;HPM_P2
2023/06/20 00:00:36;;;;;;;;;;;;;;;23.47;50.06;100335.84;5403300;32;34851;-72
2023/06/20 00:03:38;;;;;;;;;;;;;;;23.29;51.09;100339.41;5403928;32;34119;-73
2023/06/20 00:06:40;;;;;;;;;;;;;;;23.76;50.32;100341.19;5406129;32;35362;-72
2023/06/20 00:09:42;;;;;;;;;;;;;;;23.55;50.96;100345.84;5404831;32;34332;-73
2023/06/20 00:12:44;;;;;;;;;;;;;;;23.66;49.74;100344.88;5408344;32;35761;-73
2023/06/20 00:15:46;;;;;;;;;;;;;;;23.34;50.21;100350.53;5396211;32;34138;-73
2023/06/20 00:18:54;;;;;;;;;;;;;;;22.90;50.20;100352.81;5406088;32;34337;-72
2023/06/20 00:21:56;;;;;;;;;;;;;;;22.61;50.75;100353.59;5407310;32;35431;-73
2023/06/20 00:24:58;;;;;;;;;;;;;;;22.61;50.69;100353.59;5400671;32;33185;-73
2023/06/20 00:28:02;;;;;;;;;;;;;;;23.18;49.46;100351.94;5402720;32;33936;-73
2023/06/20 00:31:04;;;;;;;;;;;;;;;23.00;50.35;100356.34;5403867;32;35794;-73
2023/06/20 00:34:06;;;;;;;;;;;;;;;23.37;49.47;100350.25;5410860;32;35358;-73
2023/06/20 00:37:08;;;;;;;;;;;;;;;23.16;50.01;100355.78;5407938;32;34687;-72
2023/06/20 00:40:10;;;;;;;;;;;;;;;22.89;51.04;100359.16;5402284;32;35751;-72
2023/06/20 00:43:12;;;;;;;;;;;;;;;22.66;52.12;100356.69;5400405;32;35416;-72
2023/06/20 00:46:23;;;;;;;;;;;;;;;22.72;52.05;100357.97;5389073;32;34906;-73
2023/06/20 00:49:25;;;;;;;;;;;;;;;21.76;54.69;100355.75;5410964;32;34339;-72
2023/06/20 00:52:27;;;;;;;;;;;;;;;21.74;55.21;100360.41;5390272;32;34209;-74
2023/06/20 00:55:31;;;;;;;;;;;;;;;21.83;55.19;100370.28;5405408;32;34244;-71
2023/06/20 00:58:33;;;;;;;;;;;;;;;22.51;53.23;100360.75;5404171;32;34948;-72
2023/06/20 01:01:34;;;;;;;;;;;;;;;22.07;53.76;100368.16;5403535;32;33941;-73
2023/06/20 01:04:39;;;;;;;;;;;;;;;22.22;53.75;100378.53;5381055;32;35777;-73
2023/06/20 01:08:04;;;;;;;;;;;;;;;21.89;54.12;100372.44;5376990;32;35447;-72
2023/06/20 01:11:18;;;;;;;;;;;;;;;22.44;53.10;100365.81;5387954;32;34155;-72
2023/06/20 01:14:31;;;;;;;;;;;;;;;21.92;53.88;100368.66;5402755;32;35661;-73
2023/06/20 01:17:36;;;;;;;;;;;;;;;22.41;52.25;100376.81;5377606;32;34489;-72
2023/06/20 01:20:43;;;;;;;;;;;;;;;22.20;52.38;100373.31;5407570;32;34660;-73
2023/06/20 01:23:54;;;;;;;;;;;;;;;22.55;51.32;100372.03;5401304;32;35356;-73
2023/06/20 01:27:10;;;;;;;;;;;;;;;22.01;52.69;100381.22;5407710;32;35286;-73
2023/06/20 01:30:22;;;;;;;;;;;;;;;22.19;51.79;100374.31;5388422;32;35444;-72
2023/06/20 01:33:27;;;;;;;;;;;;;;;21.75;53.09;100373.63;5401672;32;34287;-73
2023/06/20 01:36:32;;;;;;;;;;;;;;;21.53;53.54;100379.97;5408495;32;34310;-73
2023/06/20 01:39:40;;;;;;;;;;;;;;;22.49;50.76;100364.56;5396675;32;35921;-73
2023/06/20 01:42:42;;;;;;;;;;;;;;;22.39;51.10;100356.47;5390218;32;37491;-72
2023/06/20 01:45:44;;;;;;;;;;;;;;;21.70;52.86;100361.63;5390061;32;34260;-72
2023/06/20 01:48:46;;;;;;;;;;;;;;;21.33;53.80;100356.75;5404696;32;35424;-73
2023/06/20 01:51:48;;;;;;;;;;;;;;;21.12;54.76;100362.03;5407203;32;34471;-72
2023/06/20 01:54:50;;;;;;;;;;;;;;;21.18;54.47;100363.34;5405215;32;35933;-72
2023/06/20 01:57:54;;;;;;;;;;;;;;;21.59;53.36;100366.09;5395413;32;35793;-73
2023/06/20 02:00:56;;;;;;;;;;;;;;;21.30;54.24;100367.69;5404077;32;34202;-72
2023/06/20 02:03:57;;;;;;;;;;;;;;;21.59;53.15;100358.06;5409494;32;34287;-72
2023/06/20 02:07:00;;;;;;;;;;;;;;;20.89;54.92;100353.28;5391045;32;35484;-72
2023/06/20 02:10:03;;;;;;;;;;;;;;;21.76;52.76;100353.91;5392580;32;34358;-72
2023/06/20 02:13:05;;;;;;;;;;;;;;;21.96;51.73;100360.25;5407471;32;34384;-73
2023/06/20 02:16:08;;;;;;;;;;;;;;;21.87;51.99;100361.88;5405745;32;34156;-72
2023/06/20 02:19:10;;;;;;;;;;;;;;;21.92;51.98;100368.66;5409140;32;35466;-72
2023/06/20 02:22:13;;;;;;;;;;;;;;;21.38;53.04;100373.25;5378838;32;36096;-72
2023/06/20 02:25:19;;;;;;;;;;;;;;;21.67;52.29;100369.94;5408832;32;34388;-72
2023/06/20 02:28:21;;;;;;;;;;;;;;;20.90;54.55;100376.34;5404315;32;34919;-73
2023/06/20 02:31:24;;;;;;;;;;;;;;;20.75;54.96;100362.44;5405829;32;34529;-73
2023/06/20 02:34:26;;;;;;;;;;;;;;;20.96;54.36;100381.19;5393272;32;34785;-73
2023/06/20 02:37:29;;;;;;;;;;;;;;;21.41;53.29;100381.00;5403908;32;35415;-72
2023/06/20 02:40:31;;;;;;;;;;;;;;;21.60;52.56;100380.31;5406929;32;36181;-73
2023/06/20 02:43:33;;;;;;;;;;;;;;;21.27;53.43;100381.31;5400973;32;34249;-72
2023/06/20 02:46:49;;;;;;;;;;;;;;;21.37;53.49;100371.53;5408010;32;34441;-73
2023/06/20 02:49:54;;;;;;;;;;;;;;;21.62;52.58;100376.50;5404010;32;34580;-72
2023/06/20 02:53:00;;;;;;;;;;;;;;;21.46;52.71;100385.97;5403778;32;34490;-72
2023/06/20 02:56:05;;;;;;;;;;;;;;;21.15;53.74;100380.50;5404556;32;34151;-72
2023/06/20 02:59:11;;;;;;;;;;;;;;;21.93;51.75;100383.75;5404078;32;34351;-72
2023/06/20 03:02:13;;;;;;;;;;;;;;;21.41;53.22;100386.37;5406038;32;34614;-72
2023/06/20 03:05:15;;;;;;;;;;;;;;;21.90;52.27;100393.72;5404755;32;34261;-73
2023/06/20 03:08:17;;;;;;;;;;;;;;;21.30;53.89;100384.59;5406177;32;35369;-73
2023/06/20 03:11:20;;;;;;;;;;;;;;;21.70;53.10;100388.38;5405588;32;34269;-73
2023/06/20 03:14:22;;;;;;;;;;;;;;;21.13;55.14;100389.63;5390269;32;35409;-74
2023/06/20 03:17:25;;;;;;;;;;;;;;;21.39;54.48;100382.97;5411703;32;35006;-72
2023/06/20 03:20:28;;;;;;;;;;;;;;;21.36;54.82;100394.75;5391081;32;35733;-73
2023/06/20 03:23:30;;;;;;;;;;;;;;;21.65;54.19;100399.50;5404156;32;35452;-72
2023/06/20 03:26:41;;;;;;;;;;;;;;;21.59;54.67;100406.22;5402380;32;34556;-72
2023/06/20 03:29:43;;;;;;;;;;;;;;;21.68;54.14;100401.88;5379192;32;34270;-72
2023/06/20 03:32:45;;;;;;;;;;;;;;;21.90;53.29;100403.59;5406716;32;34383;-72
2023/06/20 03:35:47;;;;;;;;;;;;;;;21.36;54.98;100412.63;5404834;32;35004;-73
2023/06/20 03:38:49;;;;;;;;;;;;;;;21.75;53.96;100418.25;5407063;32;36957;-73
2023/06/20 03:41:51;;;;;;;;;;;;;;;22.43;52.05;100401.59;5401094;32;34690;-74
2023/06/20 03:44:53;;;;;;;;;;;;;;;22.12;52.78;100400.75;5406384;32;34362;-73
2023/06/20 03:47:55;;;;;;;;;;;;;;;21.88;53.07;100410.88;5389811;32;34730;-72
2023/06/20 03:50:57;;;;;;;;;;;;;;;21.76;53.43;100412.78;5403947;32;34282;-74
2023/06/20 03:53:59;;;;;;;;;;;;;;;22.34;51.87;100422.97;5404944;32;34258;-73
2023/06/20 03:57:01;;;;;;;;;;;;;;;21.97;52.44;100423.47;5403836;32;34365;-73
2023/06/20 04:00:13;;;;;;;;;;;;;;;22.69;50.47;100415.34;5406400;32;34223;-72
2023/06/20 04:03:15;;;;;;;;;;;;;;;22.24;51.85;100425.62;5404061;32;34376;-73
2023/06/20 04:06:17;;;;;;;;;;;;;;;22.09;51.91;100429.63;5407897;32;34364;-74
2023/06/20 04:09:19;;;;;;;;;;;;;;;22.77;50.40;100419.19;5401872;32;34729;-71
2023/06/20 04:12:21;;;;;;;;;;;;;;;22.71;50.63;100418.72;5404587;32;34197;-73
2023/06/20 04:15:23;;;;;;;;;;;;;;;22.79;50.88;100418.03;5407612;32;34464;-72
2023/06/20 04:18:26;;;;;;;;;;;;;;;22.55;51.90;100436.31;5400900;32;34371;-72
2023/06/20 04:21:31;;;;;;;;;;;;;;;22.95;50.56;100430.97;5395382;32;33566;-73
2023/06/20 04:24:33;;;;;;;;;;;;;;;22.77;51.31;100427.22;5389672;32;34249;-73
2023/06/20 04:27:35;;;;;;;;;;;;;;;22.90;51.07;100428.69;5406932;32;34264;-72
2023/06/20 04:30:37;;;;;;;;;;;;;;;22.90;51.28;100433.19;5402235;32;35475;-73
2023/06/20 04:33:48;;;;;;;;;;;;;;;23.26;50.73;100420.13;5403027;32;34276;-73
2023/06/20 04:36:50;;;;;;;;;;;;;;;23.23;50.77;100416.72;5405579;32;34147;-73
2023/06/20 04:39:52;;;;;;;;;;;;;;;23.31;50.86;100420.53;5399381;32;34349;-73
2023/06/20 04:42:55;;;;;;;;;;;;;;;23.55;49.85;100426.31;5402800;32;34376;-73
2023/06/20 04:45:57;;;;;;;;;;;;;;;23.92;49.34;100418.41;5401255;32;35942;-72
2023/06/20 04:49:00;;;;;;;;;;;;;;;23.28;50.97;100423.50;5405332;32;35800;-72
2023/06/20 04:52:02;;;;;;;;;;;;;;;23.22;51.20;100424.91;5407929;32;34185;-72
2023/06/20 04:55:04;;;;;;;;;;;;;;;23.55;50.30;100414.75;5400780;32;34393;-72
2023/06/20 04:58:07;;;;;;;;;;;;;;;23.56;50.52;100411.91;5400656;32;34187;-74
2023/06/20 05:01:09;;;;;;;;;;;;;;;23.56;50.59;100417.28;5402298;32;34285;-73
2023/06/20 05:04:11;;;;;;;;;;;;;;;23.22;51.48;100420.41;5405926;32;34404;-72
2023/06/20 05:07:14;;;;;;;;;;;;;;;23.42;51.32;100428.44;5400674;32;34264;-72
2023/06/20 05:10:16;;;;;;;;;;;;;;;23.55;50.70;100430.84;5389368;32;35450;-73
2023/06/20 05:13:18;;;;;;;;;;;;;;;24.49;48.24;100431.81;5391703;32;34291;-73
2023/06/20 05:16:20;;;;;;;;;;;;;;;24.82;47.56;100425.81;5404106;32;34417;-74
2023/06/20 05:19:22;;;;;;;;;;;;;;;24.81;47.52;100436.72;5406301;32;34526;-73
2023/06/20 05:22:24;;;;;;;;;;;;;;;25.45;46.20;100438.41;5401090;32;34064;-72
2023/06/20 05:25:26;;;;;;;;;;;;;;;25.61;45.89;100443.94;5407630;32;34173;-72
2023/06/20 05:28:28;;;;;;;;;;;;;;;24.56;48.73;100443.66;5402929;32;35469;-73
2023/06/20 05:31:30;;;;;;;;;;;;;;;24.81;47.57;100442.94;5406314;32;34273;-74
2023/06/20 05:34:34;;;;;;;;;;;;;;;25.36;46.90;100452.78;5404588;32;34465;-72
2023/06/20 05:37:36;;;;;;;;;;;;;;;25.68;45.34;100436.06;5403334;32;36468;-72
2023/06/20 05:40:38;;;;;;;;;;;;;;;27.20;42.09;100440.78;5405457;32;34338;-72
2023/06/20 05:43:40;;;;;;;;;;;;;;;26.45;44.02;100442.53;5398032;32;35487;-71
2023/06/20 05:46:42;;;;;;;;;;;;;;;27.47;40.96;100430.69;5400303;32;36026;-75
2023/06/20 05:49:44;;;;;;;;;;;;;;;26.89;42.64;100443.19;5383982;32;34656;-73
2023/06/20 05:52:46;;;;;;;;;;;;;;;27.46;41.15;100437.09;5370809;32;35880;-74
2023/06/20 05:55:51;;;;;;;;;;;;;;;27.31;40.96;100436.94;5360432;32;34388;-79
2023/06/20 05:58:53;;;;;;;;;;;;;;;27.16;41.19;100441.28;5351799;32;35810;-77
2023/06/20 06:01:55;;;;;;;;;;;;;;;26.94;41.60;100440.84;5357471;32;34220;-76
2023/06/20 06:04:59;;;;;;;;;;;;;;;27.90;39.47;100443.03;5341398;32;35247;-74
2023/06/20 06:08:02;;;;;;;;;;;;;;;27.87;39.58;100442.50;5360970;32;35501;-73
2023/06/20 06:11:04;;;;;;;;;;;;;;;28.11;39.19;100447.88;5344684;32;34791;-71
2023/06/20 06:14:06;;;;;;;;;;;;;;;27.97;39.26;100441.31;5353305;32;36269;-81
2023/06/20 06:17:08;;;;;;;;;;;;;;;28.73;37.88;100445.34;5361329;32;34349;-78
2023/06/20 06:20:17;;;;;;;;;;;;;;;30.01;35.56;100445.62;5359566;32;34268;-75
2023/06/20 06:23:19;;;;;;;;;;;;;;;30.91;33.92;100452.75;5362112;32;34383;-70
2023/06/20 06:26:21;;;;;;;;;;;;;;;29.91;35.75;100459.44;5357669;32;34172;-80
2023/06/20 06:29:25;;;;;;;;;;;;;;;30.90;33.64;100456.50;5361789;32;35429;-75
2023/06/20 06:32:27;;;;;;;;;;;;;;;31.14;33.34;100453.44;5362387;32;34762;-78
2023/06/20 06:35:32;;;;;;;;;;;;;;;30.37;34.71;100455.78;5362341;32;34005;-74
2023/06/20 06:38:34;;;;;;;;;;;;;;;30.19;34.77;100459.69;5359359;32;34164;-69
2023/06/20 06:41:36;;;;;;;;;;;;;;;30.75;34.11;100453.84;5360946;32;34122;-72
2023/06/20 06:44:38;;;;;;;;;;;;;;;30.20;35.45;100461.38;5351228;32;35347;-79
2023/06/20 06:47:40;;;;;;;;;;;;;;;30.30;35.35;100458.41;5361392;32;34149;-72
2023/06/20 06:50:43;;;;;;;;;;;;;;;30.90;34.50;100461.94;5338904;32;35505;-74
2023/06/20 06:53:45;;;;;;;;;;;;;;;31.20;33.65;100449.97;5364322;32;35484;-81
2023/06/20 06:56:47;;;;;;;;;;;;;;;31.14;34.24;100455.31;5362791;32;35561;-68
2023/06/20 06:59:50;;;;;;;;;;;;;;;32.58;32.06;100451.31;5366023;32;34888;-81
2023/06/20 07:02:52;;;;;;;;;;;;;;;32.23;32.36;100448.59;5358049;32;33109;-83
2023/06/20 07:05:54;;;;;;;;;;;;;;;32.71;31.75;100448.66;5359942;32;34316;-75
2023/06/20 07:08:56;;;;;;;;;;;;;;;31.47;33.44;100459.25;5357910;32;33219;-71
2023/06/20 07:11:58;;;;;;;;;;;;;;;30.81;35.08;100469.34;5371021;32;35326;-79
2023/06/20 07:15:00;;;;;;;;;;;;;;;32.52;32.10;100463.00;5362913;32;34826;-77
2023/06/20 07:18:02;;;;;;;;;;;;;;;32.65;31.57;100463.06;5364687;32;35701;-72
2023/06/20 07:21:04;;;;;;;;;;;;;;;32.72;31.58;100461.25;5363995;32;34221;-75
2023/06/20 07:24:06;;;;;;;;;;;;;;;34.96;28.34;100456.91;5353665;32;34464;-69
2023/06/20 07:27:08;;;;;;;;;;;;;;;34.36;29.01;100467.16;5360848;32;34336;-72
2023/06/20 07:30:13;;;;;;;;;;;;;;;33.35;30.37;100467.31;5362922;32;37136;-72
2023/06/20 07:33:15;;;;;;;;;;;;;;;34.60;28.81;100467.56;5365562;32;36049;-78
2023/06/20 07:36:17;;;;;;;;;;;;;;;34.40;28.86;100468.41;5334211;32;34470;-74
2023/06/20 07:39:19;;;;;;;;;;;;;;;33.87;29.85;100471.16;5351012;32;36461;-75
2023/06/20 07:42:21;;;;;;;;;;;;;;;34.13;29.21;100473.06;5359043;32;35513;-76
2023/06/20 07:45:23;;;;;;;;;;;;;;;33.65;29.95;100472.44;5350809;32;34165;-72
2023/06/20 07:48:29;;;;;;;;;;;;;;;34.03;28.95;100467.22;5356174;32;33617;-77
2023/06/20 07:51:33;;;;;;;;;;;;;;;34.74;28.34;100470.00;5403277;32;34045;-79
2023/06/20 07:54:35;;;;;;;;;;;;;;;36.06;26.67;100462.88;5382924;32;35368;-79
2023/06/20 07:57:37;;;;;;;;;;;;;;;35.43;27.13;100464.88;5404646;32;34318;-74
2023/06/20 08:00:40;;;;;;;;;;;;;;;32.76;31.54;100469.84;5384182;32;35658;-71
2023/06/20 08:03:42;;;;;;;;;;;;;;;33.72;29.78;100465.09;5406535;32;34412;-71
2023/06/20 08:06:47;;;;;;;;;;;;;;;33.39;30.72;100471.34;5404694;32;33980;-72
2023/06/20 08:09:49;;;;;;;;;;;;;;;34.07;28.74;100465.75;5403928;32;34518;-74
2023/06/20 08:12:51;;;;;;;;;;;;;;;34.20;28.40;100467.63;5402393;32;34298;-72
2023/06/20 08:15:53;;;;;;;;;;;;;;;34.98;27.17;100482.13;5400079;32;34082;-81
2023/06/20 08:18:55;;;;;;;;;;;;;;;34.85;27.48;100476.69;5389048;32;36642;-73
2023/06/20 08:21:58;;;;;;;;;;;;;;;34.50;28.00;100480.78;5396346;32;35402;-73
2023/06/20 08:25:00;;;;;;;;;;;;;;;34.91;27.56;100475.00;5396793;32;33391;-70
2023/06/20 08:28:02;;;;;;;;;;;;;;;35.71;26.01;100473.47;5393597;32;34618;-71
2023/06/20 08:31:15;;;;;;;;;;;;;;;35.73;26.51;100473.25;5366209;32;34692;-82
2023/06/20 08:34:18;;;;;;;;;;;;;;;36.96;24.78;100454.09;5356002;32;34283;-74
2023/06/20 08:37:23;;;;;;;;;;;;;;;37.59;24.14;100461.84;5350453;32;34900;-74
2023/06/20 08:40:25;;;;;;;;;;;;;;;36.95;24.98;100457.91;5352013;32;33021;-72
2023/06/20 08:43:29;;;;;;;;;;;;;;;37.27;24.27;100468.63;5360458;32;34434;-72
2023/06/20 08:46:32;;;;;;;;;;;;;;;35.86;26.02;100464.94;5359756;32;34958;-71
2023/06/20 08:49:34;;;;;;;;;;;;;;;35.04;27.62;100463.16;5363467;32;34274;-70
2023/06/20 08:52:38;;;;;;;;;;;;;;;35.37;26.53;100449.31;5394079;32;35343;-72
2023/06/20 08:55:40;;;;;;;;;;;;;;;37.60;23.67;100451.72;5384873;32;35463;-82
2023/06/20 08:58:43;;;;;;;;;;;;;;;38.80;22.23;100453.97;5394927;32;34407;-81
2023/06/20 09:01:46;;;;;;;;;;;;;;;38.48;21.30;100451.63;5390713;32;35814;-76
2023/06/20 09:05:04;;;;;;;;;;;;;;;38.25;21.42;100450.78;5397976;32;34295;-71
2023/06/20 09:08:06;;;;;;;;;;;;;;;37.49;22.13;100447.06;5401183;32;34901;-70
2023/06/20 09:11:08;;;;;;;;;;;;;;;40.43;18.68;100434.72;5401905;32;34248;-72
2023/06/20 09:14:10;;;;;;;;;;;;;;;39.99;19.15;100437.37;5377453;32;34349;-74
2023/06/20 09:17:12;;;;;;;;;;;;;;;38.71;20.55;100436.22;5396263;32;34379;-79
2023/06/20 09:20:15;;;;;;;;;;;;;;;37.02;22.58;100442.22;5395306;32;34373;-75
2023/06/20 09:23:26;;;;;;;;;;;;;;;36.42;23.06;100438.56;5399756;32;34278;-73
2023/06/20 09:26:31;;;;;;;;;;;;;;;38.04;21.79;100439.38;5400157;32;34190;-70
2023/06/20 09:29:33;;;;;;;;;;;;;;;40.83;18.50;100433.56;5401248;32;35358;-78
2023/06/20 09:32:36;;;;;;;;;;;;;;;40.91;18.34;100437.84;5399399;32;35626;-78
2023/06/20 09:35:38;;;;;;;;;;;;;;;37.43;22.32;100442.53;5377877;32;33924;-73
2023/06/20 09:38:41;;;;;;;;;;;;;;;37.87;21.72;100441.16;5401238;32;33491;-70
2023/06/20 09:41:52;;;;;;;;;;;;;;;37.70;21.85;100434.69;5400054;32;34231;-82
2023/06/20 09:44:55;;;;;;;;;;;;;;;37.05;23.05;100444.50;5396016;32;37577;-75
2023/06/20 09:47:57;;;;;;;;;;;;;;;39.40;19.82;100436.97;5393604;32;34269;-82
2023/06/20 09:50:59;;;;;;;;;;;;;;;38.94;20.51;100438.84;5324521;32;34081;-75
2023/06/20 09:54:01;;;;;;;;;;;;;;;39.01;20.37;100436.78;5358212;32;34215;-72
2023/06/20 09:57:04;;;;;;;;;;;;;;;38.70;20.65;100429.81;5344246;32;35296;-85
2023/06/20 10:00:14;;;;;;;;;;;;;;;41.32;17.56;100423.37;5359317;32;34193;-81
2023/06/20 10:03:17;;;;;;;;;;;;;;;38.95;19.79;100432.28;5327780;32;34246;-74
2023/06/20 10:06:19;;;;;;;;;;;;;;;40.62;17.62;100427.00;5362198;32;34672;-71
2023/06/20 10:09:24;;;;;;;;;;;;;;;41.72;16.51;100426.72;5362681;32;36218;-73
2023/06/20 10:12:27;;;;;;;;;;;;;;;42.28;15.09;100424.38;5366320;32;33768;-81
2023/06/20 10:15:29;;;;;;;;;;;;;;;40.87;16.42;100427.28;5366868;32;35626;-76
2023/06/20 10:18:32;;;;;;;;;;;;;;;40.22;16.89;100425.38;5365783;32;34083;-82
2023/06/20 10:22:03;;;;;;;;;;;;;;;39.14;17.93;100427.41;5366401;32;34361;-82
2023/06/20 10:25:11;;;;;;;;;;;;;;;37.04;20.49;100425.56;5364302;32;34210;-83
2023/06/20 10:28:14;;;;;;;;;;;;;;;38.43;19.43;100417.75;5360132;32;36744;-78
2023/06/20 10:31:16;;;;;;;;;;;;;;;41.21;16.30;100416.06;5360098;32;35558;-84
2023/06/20 10:34:28;;;;;;;;;;;;;;;42.33;15.49;100416.13;5361592;32;34794;-73
2023/06/20 10:37:33;;;;;;;;;;;;;;;42.25;15.42;100409.16;5353369;32;35731;-73
2023/06/20 10:40:36;;;;;;;;;;;;;;;39.90;17.61;100413.31;5356473;32;34118;-77
2023/06/20 10:43:46;;;;;;;;;;;;;;;43.02;14.77;100409.44;5367252;32;35638;-80
2023/06/20 10:46:48;;;;;;;;;;;;;;;39.04;18.32;100413.50;5360784;32;35210;-81
2023/06/20 10:49:50;;;;;;;;;;;;;;;37.79;19.83;100403.91;5363069;32;34347;-72
2023/06/20 10:52:52;;;;;;;;;;;;;;;37.66;20.25;100412.38;5364815;32;35667;-73
2023/06/20 10:55:54;;;;;;;;;;;;;;;37.40;20.12;100403.53;5359442;32;34078;-82
2023/06/20 10:58:57;;;;;;;;;;;;;;;38.00;19.49;100413.50;5343281;32;34444;-81
2023/06/20 11:01:59;;;;;;;;;;;;;;;38.86;18.72;100416.44;5345006;32;33969;-82
2023/06/20 11:05:04;;;;;;;;;;;;;;;39.35;18.22;100397.56;5360947;32;33688;-78
2023/06/20 11:08:08;;;;;;;;;;;;;;;35.78;22.26;100399.59;5364182;32;35598;-76
2023/06/20 11:11:10;;;;;;;;;;;;;;;36.47;21.71;100392.19;5359394;32;34272;-77
2023/06/20 11:14:13;;;;;;;;;;;;;;;36.16;22.40;100393.16;5352759;32;35410;-77
2023/06/20 11:17:15;;;;;;;;;;;;;;;38.91;19.10;100391.81;5363726;32;34897;-76
2023/06/20 11:20:17;;;;;;;;;;;;;;;37.30;21.07;100391.47;5368518;32;34116;-79
2023/06/20 11:23:20;;;;;;;;;;;;;;;38.83;18.68;100386.72;5350175;32;35743;-76
2023/06/20 11:26:27;;;;;;;;;;;;;;;37.22;20.55;100383.56;5360822;32;34166;-84
2023/06/20 11:29:36;;;;;;;;;;;;;;;38.04;19.97;100379.00;5357812;32;36335;-74
2023/06/20 11:32:38;;;;;;;;;;;;;;;38.41;19.44;100379.56;5349709;32;35477;-77
2023/06/20 11:35:43;;;;;;;;;;;;;;;39.89;17.99;100370.38;5362827;32;36750;-87
2023/06/20 11:38:45;;;;;;;;;;;;;;;41.32;16.03;100367.41;5362742;32;35485;-77
2023/06/20 11:41:48;;;;;;;;;;;;;;;39.54;17.70;100366.81;5360696;32;34337;-74
2023/06/20 11:44:50;;;;;;;;;;;;;;;41.10;16.03;100365.53;5362076;32;34295;-73
2023/06/20 11:48:11;;;;;;;;;;;;;;;40.47;16.45;100363.47;5343793;32;35624;-69
2023/06/20 11:51:13;;;;;;;;;;;;;;;41.15;15.70;100367.50;5347047;32;35425;-76
2023/06/20 11:54:17;;;;;;;;;;;;;;;39.97;16.75;100358.94;5354254;32;35015;-74
2023/06/20 11:57:28;;;;;;;;;;;;;;;39.52;17.14;100357.97;5355558;32;35500;-71
2023/06/20 12:00:31;;;;;;;;;;;;;;;40.05;16.45;100358.50;5339200;32;34301;-78
2023/06/20 12:03:34;;;;;;;;;;;;;;;39.31;17.55;100353.25;5342331;32;34723;-82
2023/06/20 12:06:39;;;;;;;;;;;;;;;38.49;18.25;100361.88;5361926;32;34384;-81
2023/06/20 12:09:42;;;;;;;;;;;;;;;39.19;17.39;100352.50;5357294;32;34347;-74
2023/06/20 12:12:45;;;;;;;;;;;;;;;37.73;18.66;100355.50;5357586;32;34199;-80
2023/06/20 12:15:47;;;;;;;;;;;;;;;36.33;20.34;100353.19;5362178;32;34354;-70
2023/06/20 12:18:51;;;;;;;;;;;;;;;36.97;19.36;100351.72;5359826;32;35363;-78
2023/06/20 12:21:53;;;;;;;;;;;;;;;36.59;19.72;100350.13;5344352;32;34286;-73
2023/06/20 12:24:55;;;;;;;;;;;;;;;35.03;21.76;100346.78;5360444;32;36776;-71
2023/06/20 12:28:01;;;;;;;;;;;;;;;34.85;22.30;100345.66;5360675;32;34399;-70
2023/06/20 12:31:06;;;;;;;;;;;;;;;35.97;21.23;100348.53;5356670;32;36460;-84
2023/06/20 12:34:08;;;;;;;;;;;;;;;35.79;21.10;100339.22;5359048;32;34304;-74
2023/06/20 12:37:10;;;;;;;;;;;;;;;34.48;22.80;100337.22;5345454;32;34054;-74
2023/06/20 12:40:14;;;;;;;;;;;;;;;34.24;23.46;100337.94;5358608;32;34505;-67
2023/06/20 12:43:19;;;;;;;;;;;;;;;34.73;22.65;100336.47;5345060;32;34422;-79
2023/06/20 12:46:21;;;;;;;;;;;;;;;35.47;21.73;100330.28;5349105;32;35126;-85
2023/06/20 12:49:23;;;;;;;;;;;;;;;34.92;22.23;100338.28;5349826;32;34661;-76
2023/06/20 12:52:28;;;;;;;;;;;;;;;34.90;22.25;100332.16;5348637;32;34229;-75
2023/06/20 12:55:31;;;;;;;;;;;;;;;35.39;21.27;100325.06;5338510;32;35558;-71
2023/06/20 12:58:34;;;;;;;;;;;;;;;35.43;21.09;100328.25;5353033;32;35348;-75
2023/06/20 13:01:37;;;;;;;;;;;;;;;34.78;21.95;100322.16;5341249;32;35491;-74
2023/06/20 13:04:39;;;;;;;;;;;;;;;34.59;22.21;100321.25;5345838;32;34647;-73
2023/06/20 13:07:41;;;;;;;;;;;;;;;35.10;21.49;100320.28;5358091;32;33812;-73
2023/06/20 13:10:44;;;;;;;;;;;;;;;34.18;23.02;100322.44;5355730;32;34331;-76
2023/06/20 13:13:47;;;;;;;;;;;;;;;35.18;21.84;100311.81;5352733;32;34083;-77
2023/06/20 13:16:49;;;;;;;;;;;;;;;35.28;22.04;100309.41;5361468;32;34627;-75
2023/06/20 13:19:52;;;;;;;;;;;;;;;35.45;21.64;100310.56;5362555;32;36030;-78
2023/06/20 13:22:55;;;;;;;;;;;;;;;35.01;22.09;100311.53;5352962;32;34822;-68
2023/06/20 13:25:57;;;;;;;;;;;;;;;34.74;22.65;100308.13;5356336;32;35040;-79
2023/06/20 13:29:00;;;;;;;;;;;;;;;34.44;23.01;100322.34;5355113;32;34733;-69
2023/06/20 13:32:02;;;;;;;;;;;;;;;34.98;22.95;100312.81;5348822;32;35554;-74
2023/06/20 13:35:07;;;;;;;;;;;;;;;35.47;22.01;100299.38;5355870;32;35458;-74
2023/06/20 13:38:08;;;;;;;;;;;;;;;34.39;22.98;100304.91;5353546;32;36033;-71
2023/06/20 13:41:11;;;;;;;;;;;;;;;34.74;22.68;100299.94;5357644;32;34057;-74
2023/06/20 13:44:13;;;;;;;;;;;;;;;33.77;23.70;100299.06;5355705;32;34219;-74
2023/06/20 13:47:16;;;;;;;;;;;;;;;34.76;22.62;100306.00;5353688;32;34126;-80
2023/06/20 13:50:19;;;;;;;;;;;;;;;34.38;22.77;100300.53;5359456;32;34009;-76
2023/06/20 13:53:21;;;;;;;;;;;;;;;33.92;23.54;100307.00;5367306;32;34284;-78
2023/06/20 13:56:25;;;;;;;;;;;;;;;34.27;23.18;100315.69;5359634;32;34375;-75
2023/06/20 13:59:30;;;;;;;;;;;;;;;34.46;23.01;100303.03;5350545;32;35351;-81
2023/06/20 14:02:33;;;;;;;;;;;;;;;35.01;22.21;100295.97;5339207;32;34334;-76
2023/06/20 14:05:36;;;;;;;;;;;;;;;34.70;22.40;100302.25;5384695;32;35416;-80
2023/06/20 14:08:38;;;;;;;;;;;;;;;34.77;22.32;100301.37;5391908;32;34322;-80
2023/06/20 14:11:40;;;;;;;;;;;;;;;34.83;22.30;100292.31;5382719;32;35819;-77
2023/06/20 14:14:42;;;;;;;;;;;;;;;33.87;23.31;100299.41;5379770;32;35619;-80
2023/06/20 14:17:45;;;;;;;;;;;;;;;34.85;22.12;100291.03;5387862;32;34540;-77
2023/06/20 14:20:47;;;;;;;;;;;;;;;34.83;22.10;100287.69;5389186;32;35525;-81
2023/06/20 14:23:50;;;;;;;;;;;;;;;35.19;21.33;100283.44;5387377;32;34842;-77
2023/06/20 14:26:54;;;;;;;;;;;;;;;35.40;21.38;100285.75;5395691;32;35441;-76
2023/06/20 14:29:59;;;;;;;;;;;;;;;35.40;20.99;100288.50;5399674;32;35727;-80
2023/06/20 14:33:02;;;;;;;;;;;;;;;34.96;22.08;100282.16;5396970;32;34215;-78
2023/06/20 14:36:05;;;;;;;;;;;;;;;34.28;22.87;100287.34;5403251;32;35222;-76
2023/06/20 14:39:09;;;;;;;;;;;;;;;34.30;22.73;100296.16;5402421;32;34389;-80
2023/06/20 14:42:11;;;;;;;;;;;;;;;35.21;21.39;100284.06;5388873;32;34504;-81
2023/06/20 14:45:13;;;;;;;;;;;;;;;34.85;21.59;100282.84;5404069;32;34305;-76
2023/06/20 14:48:16;;;;;;;;;;;;;;;34.83;21.79;100281.37;5406242;32;35347;-82
2023/06/20 14:51:19;;;;;;;;;;;;;;;34.37;22.38;100274.28;5381282;32;34192;-82
2023/06/20 14:54:22;;;;;;;;;;;;;;;35.03;21.76;100273.91;5406120;32;34378;-77
2023/06/20 14:57:24;;;;;;;;;;;;;;;35.18;21.46;100274.41;5409630;32;34127;-82
2023/06/20 15:00:27;;;;;;;;;;;;;;;35.48;21.03;100268.25;5392354;32;35065;-77
2023/06/20 15:03:29;;;;;;;;;;;;;;;35.25;21.08;100274.34;5407670;32;35543;-82
2023/06/20 15:06:31;;;;;;;;;;;;;;;34.41;21.76;100273.66;5405167;32;34398;-77
2023/06/20 15:09:35;;;;;;;;;;;;;;;34.35;22.12;100274.53;5405068;32;35448;-81
2023/06/20 15:12:37;;;;;;;;;;;;;;;34.14;21.93;100266.66;5406892;32;35630;-77
2023/06/20 15:15:39;;;;;;;;;;;;;;;33.91;22.36;100280.78;5406349;32;35523;-77
2023/06/20 15:18:41;;;;;;;;;;;;;;;34.04;22.24;100267.13;5406432;32;35414;-81
2023/06/20 15:21:43;;;;;;;;;;;;;;;33.80;22.95;100268.63;5389892;32;34266;-77
2023/06/20 15:24:46;;;;;;;;;;;;;;;34.38;22.01;100265.88;5375269;32;1019270;-80
2023/06/20 15:27:48;;;;;;;;;;;;;;;33.28;23.22;100258.66;5391557;32;35919;-80
2023/06/20 15:30:51;;;;;;;;;;;;;;;34.03;22.25;100260.00;5405490;32;34357;-81
2023/06/20 15:33:53;;;;;;;;;;;;;;;33.30;23.61;100260.13;5407549;32;35499;-77
2023/06/20 15:36:56;;;;;;;;;;;;;;;34.23;22.30;100257.16;5405650;32;34790;-80
2023/06/20 15:39:59;;;;;;;;;;;;;;;33.90;22.82;100251.84;5406655;32;35493;-77